createdAt,value
2018-12-23T00:00:25.294Z,6.71
2018-12-23T00:01:30.447Z,6.70
2018-12-23T00:02:36.604Z,6.70
2018-12-23T00:03:42.756Z,6.66
2018-12-23T00:04:48.912Z,6.63
2018-12-23T00:05:55.068Z,6.60
2018-12-23T00:07:01.216Z,6.57
2018-12-23T00:08:07.370Z,6.54
2018-12-23T00:09:13.527Z,6.50
2018-12-23T00:10:19.679Z,6.45
2018-12-23T00:11:25.827Z,6.41
2018-12-23T00:12:31.601Z,6.38
2018-12-23T00:13:38.133Z,6.35
2018-12-23T00:14:43.799Z,6.32
2018-12-23T00:15:49.949Z,6.30
2018-12-23T00:16:56.603Z,6.28
2018-12-23T00:18:02.745Z,6.26
2018-12-23T00:19:08.887Z,6.24
2018-12-23T00:20:15.047Z,6.24
2018-12-23T00:21:20.694Z,6.28
2018-12-23T00:22:27.348Z,6.33
2018-12-23T00:23:33.586Z,6.34
2018-12-23T00:24:39.661Z,6.34
2018-12-23T00:25:45.804Z,6.33
2018-12-23T00:26:53.404Z,6.33
2018-12-23T00:27:57.607Z,6.32
2018-12-23T00:29:03.770Z,6.32
2018-12-23T00:30:10.407Z,6.31
2018-12-23T00:31:16.571Z,6.29
2018-12-23T00:32:22.213Z,6.24
2018-12-23T00:33:28.849Z,6.20
2018-12-23T00:34:34.578Z,6.19
2018-12-23T00:35:40.670Z,6.19
2018-12-23T00:36:46.810Z,6.22
2018-12-23T00:37:53.580Z,6.25
2018-12-23T00:38:59.630Z,6.29
2018-12-23T00:40:05.757Z,6.33
2018-12-23T00:41:11.900Z,6.31
2018-12-23T00:42:18.052Z,6.30
2018-12-23T00:43:24.202Z,6.26
2018-12-23T00:44:30.420Z,6.19
2018-12-23T00:45:36.492Z,6.12
2018-12-23T00:46:42.155Z,6.04
2018-12-23T00:47:49.304Z,5.99
2018-12-23T00:48:55.940Z,5.95
2018-12-23T00:50:00.606Z,5.93
2018-12-23T00:51:07.252Z,5.93
2018-12-23T00:52:13.396Z,5.94
2018-12-23T00:53:19.595Z,5.91
2018-12-23T00:54:25.700Z,5.80
2018-12-23T00:55:31.837Z,5.67
2018-12-23T00:56:37.970Z,5.56
2018-12-23T00:57:44.116Z,5.49
2018-12-23T00:58:50.282Z,5.37
2018-12-23T00:59:56.415Z,5.32
2018-12-23T01:01:02.055Z,5.32
2018-12-23T01:02:08.193Z,5.32
2018-12-23T01:03:14.836Z,5.33
2018-12-23T01:04:20.474Z,5.39
2018-12-23T01:05:28.865Z,5.40
2018-12-23T01:06:33.254Z,5.37
2018-12-23T01:07:39.386Z,5.34
2018-12-23T01:08:45.583Z,5.31
2018-12-23T01:09:51.153Z,5.28
2018-12-23T01:10:57.791Z,5.23
2018-12-23T01:12:03.424Z,5.23
2018-12-23T01:13:10.066Z,5.20
2018-12-23T01:14:16.200Z,5.19
2018-12-23T01:15:22.328Z,5.22
2018-12-23T01:16:28.458Z,5.26
2018-12-23T01:17:34.621Z,5.26
2018-12-23T01:18:40.736Z,5.25
2018-12-23T01:19:46.864Z,5.30
2018-12-23T01:20:53.005Z,5.27
2018-12-23T01:21:58.631Z,5.26
2018-12-23T01:23:05.265Z,5.27
2018-12-23T01:24:10.903Z,5.29
2018-12-23T01:25:17.527Z,5.28
2018-12-23T01:26:23.652Z,5.25
2018-12-23T01:27:29.307Z,5.24
2018-12-23T01:28:35.918Z,5.22
2018-12-23T01:29:42.057Z,5.18
2018-12-23T01:30:47.688Z,5.18
2018-12-23T01:31:54.326Z,5.16
2018-12-23T01:32:59.946Z,5.10
2018-12-23T01:34:06.571Z,5.00
2018-12-23T01:35:12.701Z,5.01
2018-12-23T01:36:18.838Z,5.09
2018-12-23T01:37:24.477Z,5.18
2018-12-23T01:38:31.078Z,5.22
2018-12-23T01:39:37.209Z,5.22
2018-12-23T01:40:43.349Z,5.22
2018-12-23T01:41:49.584Z,5.20
2018-12-23T01:42:55.633Z,5.16
2018-12-23T01:44:01.733Z,5.06
2018-12-23T01:45:07.878Z,4.98
2018-12-23T01:46:14.002Z,4.99
2018-12-23T01:47:20.133Z,5.00
2018-12-23T01:48:26.248Z,4.91
2018-12-23T01:49:31.874Z,4.77
2018-12-23T01:50:38.505Z,4.64
2018-12-23T01:51:44.641Z,4.61
2018-12-23T01:52:50.755Z,4.53
2018-12-23T01:53:56.884Z,4.46
2018-12-23T01:55:03.993Z,4.45
2018-12-23T01:56:09.113Z,4.47
2018-12-23T01:57:15.241Z,4.48
2018-12-23T01:58:21.362Z,4.47
2018-12-23T01:59:27.494Z,4.41
2018-12-23T02:00:33.588Z,4.45
2018-12-23T02:01:39.737Z,4.50
2018-12-23T02:02:45.842Z,4.66
2018-12-23T02:03:52.959Z,4.72
2018-12-23T02:04:58.093Z,4.69
2018-12-23T02:06:03.693Z,4.66
2018-12-23T02:07:09.815Z,4.69
2018-12-23T02:08:16.420Z,4.69
2018-12-23T02:09:22.043Z,4.67
2018-12-23T02:10:28.644Z,4.71
2018-12-23T02:11:34.773Z,4.71
2018-12-23T02:12:40.895Z,4.65
2018-12-23T02:13:46.991Z,4.63
2018-12-23T02:14:53.118Z,4.59
2018-12-23T02:15:59.221Z,4.58
2018-12-23T02:17:05.342Z,4.59
2018-12-23T02:18:11.596Z,4.61
2018-12-23T02:19:17.173Z,4.61
2018-12-23T02:20:23.693Z,4.60
2018-12-23T02:21:29.808Z,4.56
2018-12-23T02:22:35.921Z,4.49
2018-12-23T02:23:42.047Z,4.43
2018-12-23T02:24:47.650Z,4.49
2018-12-23T02:25:53.761Z,4.56
2018-12-23T02:26:59.882Z,4.63
2018-12-23T02:28:06.481Z,4.75
2018-12-23T02:29:12.087Z,4.78
2018-12-23T02:30:18.201Z,4.73
2018-12-23T02:31:24.320Z,4.73
2018-12-23T02:32:30.931Z,4.73
2018-12-23T02:33:37.052Z,4.74
2018-12-23T02:34:42.686Z,4.74
2018-12-23T02:35:55.458Z,4.68
2018-12-23T02:36:54.902Z,4.63
2018-12-23T02:38:01.584Z,4.60
2018-12-23T02:39:07.617Z,4.77
2018-12-23T02:40:13.728Z,4.92
2018-12-23T02:41:19.352Z,5.01
2018-12-23T02:42:25.961Z,5.09
2018-12-23T02:43:32.073Z,5.09
2018-12-23T02:44:38.182Z,4.97
2018-12-23T02:45:44.303Z,4.86
2018-12-23T02:46:50.401Z,4.87
2018-12-23T02:47:56.526Z,4.98
2018-12-23T02:49:02.150Z,5.03
2018-12-23T02:50:08.257Z,5.03
2018-12-23T02:51:14.871Z,5.01
2018-12-23T02:52:20.981Z,5.00
2018-12-23T02:53:26.599Z,5.08
2018-12-23T02:54:34.213Z,5.17
2018-12-23T02:55:38.850Z,5.25
2018-12-23T02:56:45.441Z,5.28
2018-12-23T02:57:51.576Z,5.33
2018-12-23T02:58:57.689Z,5.36
2018-12-23T03:00:03.793Z,5.35
2018-12-23T03:01:09.425Z,5.32
2018-12-23T03:02:16.041Z,5.32
2018-12-23T03:03:22.157Z,5.34
2018-12-23T03:04:28.282Z,5.35
2018-12-23T03:05:34.424Z,5.32
2018-12-23T03:06:40.026Z,5.29
2018-12-23T03:07:46.662Z,5.25
2018-12-23T03:08:52.779Z,5.26
2018-12-23T03:09:58.880Z,5.25
2018-12-23T03:11:04.516Z,5.24
2018-12-23T03:12:10.647Z,5.17
2018-12-23T03:13:17.256Z,5.13
2018-12-23T03:14:23.377Z,5.14
2018-12-23T03:15:29.493Z,5.18
2018-12-23T03:16:35.616Z,5.27
2018-12-23T03:17:41.237Z,5.29
2018-12-23T03:18:47.351Z,5.25
2018-12-23T03:19:54.972Z,5.21
2018-12-23T03:21:00.148Z,5.15
2018-12-23T03:22:06.237Z,5.10
2018-12-23T03:23:12.354Z,5.15
2018-12-23T03:24:18.469Z,5.25
2018-12-23T03:25:24.603Z,5.32
2018-12-23T03:26:30.703Z,5.38
2018-12-23T03:27:37.017Z,5.44
2018-12-23T03:28:42.969Z,5.53
2018-12-23T03:29:48.602Z,5.55
2018-12-23T03:30:55.234Z,5.57
2018-12-23T03:32:02.339Z,5.66
2018-12-23T03:33:07.424Z,5.76
2018-12-23T03:34:13.583Z,5.82
2018-12-23T03:35:19.709Z,5.84
2018-12-23T03:36:25.847Z,5.84
2018-12-23T03:37:31.985Z,5.89
2018-12-23T03:38:38.101Z,5.88
2018-12-23T03:39:44.226Z,5.83
2018-12-23T03:40:50.358Z,5.80
2018-12-23T03:41:56.499Z,5.80
2018-12-23T03:43:02.125Z,5.80
2018-12-23T03:44:08.269Z,5.77
2018-12-23T03:45:14.883Z,5.73
2018-12-23T03:46:21.019Z,5.66
2018-12-23T03:47:27.142Z,5.62
2018-12-23T03:48:33.285Z,5.61
2018-12-23T03:49:39.424Z,5.65
2018-12-23T03:50:45.533Z,5.68
2018-12-23T03:51:51.665Z,5.67
2018-12-23T03:52:57.803Z,5.60
2018-12-23T03:54:03.938Z,5.55
2018-12-23T03:55:10.057Z,5.49
2018-12-23T03:56:16.194Z,5.44
2018-12-23T03:57:21.834Z,5.38
2018-12-23T03:58:28.462Z,5.33
2018-12-23T03:59:34.604Z,5.29
2018-12-23T04:00:40.716Z,5.26
2018-12-23T04:01:46.855Z,5.26
2018-12-23T04:02:52.478Z,5.20
2018-12-23T04:03:59.114Z,5.18
2018-12-23T04:05:05.255Z,5.15
2018-12-23T04:06:11.368Z,5.16
2018-12-23T04:07:17.573Z,5.12
2018-12-23T04:08:23.632Z,5.08
2018-12-23T04:09:29.752Z,5.08
2018-12-23T04:10:35.879Z,5.12
2018-12-23T04:11:41.503Z,5.13
2018-12-23T04:12:49.146Z,5.12
2018-12-23T04:13:54.260Z,5.10
2018-12-23T04:14:59.899Z,5.04
2018-12-23T04:16:06.513Z,5.08
2018-12-23T04:17:12.134Z,5.12
2018-12-23T04:18:18.765Z,5.18
2018-12-23T04:19:24.401Z,5.27
2018-12-23T04:20:30.523Z,5.33
2018-12-23T04:21:37.138Z,5.36
2018-12-23T04:22:43.268Z,5.36
2018-12-23T04:23:49.406Z,5.30
2018-12-23T04:24:55.524Z,5.25
2018-12-23T04:26:01.642Z,5.20
2018-12-23T04:27:07.767Z,5.18
2018-12-23T04:28:14.906Z,5.18
2018-12-23T04:29:20.029Z,5.18
2018-12-23T04:30:26.154Z,5.16
2018-12-23T04:31:33.311Z,5.14
2018-12-23T04:32:38.425Z,5.09
2018-12-23T04:33:44.552Z,5.10
2018-12-23T04:34:50.665Z,5.12
2018-12-23T04:35:56.792Z,5.16
2018-12-23T04:37:02.941Z,5.17
2018-12-23T04:38:09.047Z,5.14
2018-12-23T04:39:15.199Z,5.09
2018-12-23T04:40:21.310Z,5.10
2018-12-23T04:41:27.423Z,5.10
2018-12-23T04:42:33.067Z,5.08
2018-12-23T04:43:39.678Z,5.06
2018-12-23T04:44:45.794Z,5.06
2018-12-23T04:45:51.937Z,5.07
2018-12-23T04:46:58.062Z,5.07
2018-12-23T04:48:03.681Z,5.07
2018-12-23T04:49:10.302Z,5.07
2018-12-23T04:50:16.432Z,5.07
2018-12-23T04:51:22.554Z,5.07
2018-12-23T04:52:28.690Z,5.07
2018-12-23T04:53:34.304Z,5.11
2018-12-23T04:54:40.929Z,5.13
2018-12-23T04:55:47.046Z,5.12
2018-12-23T04:56:52.678Z,5.10
2018-12-23T04:57:59.311Z,5.11
2018-12-23T04:59:05.427Z,5.10
2018-12-23T05:00:11.064Z,5.13
2018-12-23T05:01:17.674Z,5.13
2018-12-23T05:02:23.805Z,5.13
2018-12-23T05:03:29.422Z,5.12
2018-12-23T05:04:35.549Z,5.15
2018-12-23T05:05:42.174Z,5.18
2018-12-23T05:06:48.292Z,5.20
2018-12-23T05:07:54.417Z,5.22
2018-12-23T05:09:00.529Z,5.21
2018-12-23T05:10:06.661Z,5.22
2018-12-23T05:11:12.784Z,5.20
2018-12-23T05:12:18.605Z,5.23
2018-12-23T05:13:25.017Z,5.24
2018-12-23T05:14:30.664Z,5.25
2018-12-23T05:15:36.770Z,5.25
2018-12-23T05:16:43.399Z,5.23
2018-12-23T05:17:49.587Z,5.20
2018-12-23T05:18:55.651Z,5.22
2018-12-23T05:20:01.767Z,5.25
2018-12-23T05:21:07.883Z,5.25
2018-12-23T05:22:14.019Z,5.24
2018-12-23T05:23:20.149Z,5.24
2018-12-23T05:24:26.262Z,5.24
2018-12-23T05:25:32.387Z,5.26
2018-12-23T05:26:38.535Z,5.24
2018-12-23T05:27:45.638Z,5.25
2018-12-23T05:28:50.765Z,5.28
2018-12-23T05:29:56.399Z,5.33
2018-12-23T05:31:03.023Z,5.40
2018-12-23T05:32:10.146Z,5.40
2018-12-23T05:33:15.273Z,5.36
2018-12-23T05:34:21.410Z,5.36
2018-12-23T05:35:27.522Z,5.35
2018-12-23T05:36:33.165Z,5.34
2018-12-23T05:37:39.777Z,5.31
2018-12-23T05:38:45.409Z,5.32
2018-12-23T05:39:52.115Z,5.31
2018-12-23T05:40:58.174Z,5.33
2018-12-23T05:42:04.297Z,5.30
2018-12-23T05:43:10.410Z,5.27
2018-12-23T05:44:16.543Z,5.28
2018-12-23T05:45:22.670Z,5.30
2018-12-23T05:46:28.799Z,5.26
2018-12-23T05:47:34.923Z,5.24
2018-12-23T05:48:41.049Z,5.20
2018-12-23T05:49:47.180Z,5.20
2018-12-23T05:50:53.305Z,5.15
2018-12-23T05:51:59.436Z,5.13
2018-12-23T05:53:05.578Z,5.09
2018-12-23T05:54:11.712Z,5.04
2018-12-23T05:55:18.799Z,4.98
2018-12-23T05:56:23.443Z,4.88
2018-12-23T05:57:30.064Z,4.86
2018-12-23T05:58:36.205Z,4.89
2018-12-23T05:59:42.338Z,4.94
2018-12-23T06:00:47.944Z,4.98
2018-12-23T06:01:54.049Z,4.95
2018-12-23T06:03:00.178Z,4.97
2018-12-23T06:04:06.304Z,4.97
2018-12-23T06:05:12.907Z,4.95
2018-12-23T06:06:19.044Z,4.99
2018-12-23T06:07:24.670Z,5.03
2018-12-23T06:08:31.271Z,5.04
2018-12-23T06:09:36.906Z,5.01
2018-12-23T06:10:43.516Z,5.02
2018-12-23T06:11:50.640Z,4.99
2018-12-23T06:12:55.774Z,5.02
2018-12-23T06:14:01.907Z,5.08
2018-12-23T06:15:08.028Z,5.14
2018-12-23T06:16:14.146Z,5.21
2018-12-23T06:17:20.264Z,5.23
2018-12-23T06:18:25.900Z,5.22
2018-12-23T06:19:32.009Z,5.22
2018-12-23T06:20:38.632Z,5.22
2018-12-23T06:21:44.753Z,5.22
2018-12-23T06:22:50.894Z,5.26
2018-12-23T06:23:56.518Z,5.31
2018-12-23T06:25:03.126Z,5.31
2018-12-23T06:26:09.254Z,5.31
2018-12-23T06:27:15.379Z,5.34
2018-12-23T06:28:21.569Z,5.33
2018-12-23T06:29:27.618Z,5.33
2018-12-23T06:30:33.753Z,5.39
2018-12-23T06:31:39.381Z,5.42
2018-12-23T06:32:46.005Z,5.50
2018-12-23T06:33:52.119Z,5.56
2018-12-23T06:34:58.270Z,5.61
2018-12-23T06:36:04.384Z,5.66
2018-12-23T06:37:10.543Z,5.68
2018-12-23T06:38:16.624Z,5.70
2018-12-23T06:39:22.769Z,5.64
2018-12-23T06:40:28.888Z,5.59
2018-12-23T06:41:35.031Z,5.55
2018-12-23T06:42:41.131Z,5.52
2018-12-23T06:43:47.275Z,5.59
2018-12-23T06:44:53.408Z,5.60
2018-12-23T06:45:59.584Z,5.60
2018-12-23T06:47:05.651Z,5.58
2018-12-23T06:48:11.778Z,5.58
2018-12-23T06:49:17.909Z,5.57
2018-12-23T06:50:24.038Z,5.57
2018-12-23T06:51:30.165Z,5.59
2018-12-23T06:52:36.294Z,5.62
2018-12-23T06:53:42.431Z,5.66
2018-12-23T06:54:50.670Z,5.69
2018-12-23T06:55:54.193Z,5.68
2018-12-23T06:57:00.822Z,5.70
2018-12-23T06:58:06.972Z,5.70
2018-12-23T06:59:13.086Z,5.68
2018-12-23T07:00:19.205Z,5.68
2018-12-23T07:01:25.333Z,5.72
2018-12-23T07:02:31.593Z,5.76
2018-12-23T07:03:37.630Z,5.78
2018-12-23T07:04:43.238Z,5.75
2018-12-23T07:05:49.862Z,5.74
2018-12-23T07:06:56.012Z,5.75
2018-12-23T07:08:02.117Z,5.72
2018-12-23T07:09:08.250Z,5.74
2018-12-23T07:10:14.390Z,5.79
2018-12-23T07:11:20.524Z,5.82
2018-12-23T07:12:26.657Z,5.79
2018-12-23T07:13:32.797Z,5.80
2018-12-23T07:14:38.913Z,5.84
2018-12-23T07:15:45.058Z,5.88
2018-12-23T07:16:51.178Z,5.87
2018-12-23T07:17:57.329Z,5.87
2018-12-23T07:19:03.462Z,5.85
2018-12-23T07:20:09.607Z,5.80
2018-12-23T07:21:15.242Z,5.75
2018-12-23T07:22:21.853Z,5.76
2018-12-23T07:23:27.983Z,5.76
2018-12-23T07:24:34.127Z,5.81
2018-12-23T07:25:41.253Z,5.85
2018-12-23T07:26:46.408Z,5.86
2018-12-23T07:27:52.525Z,5.86
2018-12-23T07:28:58.659Z,5.85
2018-12-23T07:30:04.809Z,5.84
2018-12-23T07:31:10.463Z,5.87
2018-12-23T07:32:17.080Z,5.89
2018-12-23T07:33:23.221Z,5.90
2018-12-23T07:34:29.398Z,5.92
2018-12-23T07:35:35.572Z,5.92
2018-12-23T07:36:49.382Z,5.92
2018-12-23T07:37:47.763Z,5.93
2018-12-23T07:38:53.914Z,5.97
2018-12-23T07:40:00.043Z,6.00
2018-12-23T07:41:06.202Z,6.04
2018-12-23T07:42:12.324Z,6.07
2018-12-23T07:43:18.473Z,6.10
2018-12-23T07:44:24.113Z,6.14
2018-12-23T07:45:30.731Z,6.15
2018-12-23T07:46:36.875Z,6.18
2018-12-23T07:47:43.022Z,6.20
2018-12-23T07:48:49.170Z,6.23
2018-12-23T07:49:55.300Z,6.25
2018-12-23T07:51:01.435Z,6.25
2018-12-23T07:52:07.589Z,6.26
2018-12-23T07:53:13.741Z,6.27
2018-12-23T07:54:19.887Z,6.29
2018-12-23T07:55:26.013Z,6.31
2018-12-23T07:56:32.171Z,6.32
2018-12-23T07:57:38.300Z,6.33
2018-12-23T07:58:44.461Z,6.35
2018-12-23T07:59:50.601Z,6.36
2018-12-23T08:00:56.734Z,6.36
2018-12-23T08:02:02.387Z,6.37
2018-12-23T08:03:09.030Z,6.38
2018-12-23T08:04:15.183Z,6.41
2018-12-23T08:05:21.321Z,6.44
2018-12-23T08:06:27.577Z,6.44
2018-12-23T08:07:36.247Z,6.46
2018-12-23T08:08:39.286Z,6.48
2018-12-23T08:09:45.924Z,6.50
2018-12-23T08:10:52.071Z,6.52
2018-12-23T08:11:58.222Z,6.54
2018-12-23T08:13:03.881Z,6.55
2018-12-23T08:14:10.522Z,6.59
2018-12-23T08:15:16.677Z,6.60
2018-12-23T08:16:22.831Z,6.63
2018-12-23T08:17:28.985Z,6.66
2018-12-23T08:18:35.148Z,6.69
2018-12-23T08:19:41.299Z,6.70
2018-12-23T08:20:47.439Z,6.69
2018-12-23T08:21:53.599Z,6.66
2018-12-23T08:22:59.261Z,6.67
2018-12-23T08:24:05.922Z,6.68
2018-12-23T08:25:12.072Z,6.72
2018-12-23T08:26:17.747Z,6.74
2018-12-23T08:27:24.388Z,6.77
2018-12-23T08:28:30.566Z,6.78
2018-12-23T08:29:36.716Z,6.80
2018-12-23T08:30:42.391Z,6.81
2018-12-23T08:31:49.052Z,6.84
2018-12-23T08:32:55.204Z,6.88
2018-12-23T08:34:01.365Z,6.92
2018-12-23T08:35:07.526Z,6.98
2018-12-23T08:36:13.679Z,7.00
2018-12-23T08:37:19.861Z,7.00
2018-12-23T08:38:26.031Z,7.03
2018-12-23T08:39:32.205Z,7.03
2018-12-23T08:40:38.368Z,7.06
2018-12-23T08:41:44.528Z,7.07
2018-12-23T08:42:50.700Z,7.09
2018-12-23T08:43:56.869Z,7.11
2018-12-23T08:45:03.047Z,7.16
2018-12-23T08:46:09.219Z,7.19
2018-12-23T08:47:14.890Z,7.23
2018-12-23T08:49:27.744Z,7.30
2018-12-23T08:50:33.770Z,7.33
2018-12-23T08:52:46.659Z,7.40
2018-12-23T08:53:51.952Z,7.43
2018-12-23T08:55:00.310Z,7.46
2018-12-23T08:56:05.235Z,7.50
2018-12-23T08:57:10.990Z,7.54
2018-12-23T08:58:17.773Z,7.57
2018-12-23T08:59:23.360Z,7.60
2018-12-23T09:01:35.795Z,7.64
2018-12-23T09:02:41.421Z,7.65
2018-12-23T09:03:48.103Z,7.67
2018-12-23T09:04:53.806Z,7.70
2018-12-23T09:06:00.467Z,7.70
2018-12-23T09:07:06.669Z,7.71
2018-12-23T09:08:12.851Z,7.73
2018-12-23T09:09:19.035Z,7.78
2018-12-23T09:10:25.233Z,7.82
2018-12-23T09:11:31.429Z,7.84
2018-12-23T09:13:43.807Z,7.82
2018-12-23T09:14:50.229Z,7.80
2018-12-23T09:15:56.191Z,7.80
2018-12-23T09:17:02.390Z,7.81
2018-12-23T09:18:08.592Z,7.81
2018-12-23T09:19:14.781Z,7.82
2018-12-23T09:20:20.975Z,7.83
2018-12-23T09:21:27.175Z,7.84
2018-12-23T09:22:33.665Z,7.86
2018-12-23T09:23:39.577Z,7.87
2018-12-23T09:25:52.248Z,7.96
2018-12-23T09:26:58.142Z,8.00
2018-12-23T09:28:04.358Z,8.04
2018-12-23T09:29:10.552Z,8.10
2018-12-23T09:30:16.755Z,8.14
2018-12-23T09:31:22.950Z,8.17
2018-12-23T09:32:29.203Z,8.18
2018-12-23T09:33:35.170Z,8.19
2018-12-23T09:34:41.658Z,8.18
2018-12-23T09:35:47.430Z,8.17
2018-12-23T09:36:54.261Z,8.16
2018-12-23T09:38:01.538Z,8.17
2018-12-23T09:39:06.356Z,8.21
2018-12-23T09:40:12.569Z,8.32
2018-12-23T09:41:18.782Z,8.45
2018-12-23T09:42:24.981Z,8.55
2018-12-23T09:43:31.699Z,8.63
2018-12-23T09:44:38.747Z,8.72
2018-12-23T09:45:43.624Z,8.77
2018-12-23T09:46:49.821Z,8.81
2018-12-23T09:47:56.032Z,8.90
2018-12-23T09:49:02.348Z,8.96
2018-12-23T09:50:08.451Z,8.97
2018-12-23T09:51:14.811Z,8.97
2018-12-23T09:52:20.889Z,8.98
2018-12-23T09:53:27.107Z,8.99
2018-12-23T09:54:33.443Z,9.00
2018-12-23T09:55:39.594Z,9.00
2018-12-23T09:56:45.778Z,9.01
2018-12-23T09:57:52.024Z,9.00
2018-12-23T09:58:58.246Z,9.01
2018-12-23T10:00:04.467Z,9.02
2018-12-23T10:01:10.702Z,9.01
2018-12-23T10:02:16.923Z,9.01
2018-12-23T10:03:23.163Z,9.03
2018-12-23T10:04:29.386Z,9.07
2018-12-23T10:05:35.620Z,9.06
2018-12-23T10:06:41.862Z,9.07
2018-12-23T10:07:48.076Z,9.07
2018-12-23T10:08:53.806Z,9.08
2018-12-23T10:10:00.529Z,9.09
2018-12-23T10:11:06.772Z,9.08
2018-12-23T10:12:12.999Z,9.10
2018-12-23T10:13:19.234Z,9.09
2018-12-23T10:14:25.583Z,9.08
2018-12-23T10:15:31.687Z,9.08
2018-12-23T10:16:37.933Z,9.08
2018-12-23T10:17:44.166Z,9.08
2018-12-23T10:18:50.403Z,9.10
2018-12-23T10:19:56.636Z,9.13
2018-12-23T10:21:02.866Z,9.14
2018-12-23T10:22:09.103Z,9.15
2018-12-23T10:23:15.336Z,9.14
2018-12-23T10:24:21.580Z,9.13
2018-12-23T10:25:27.812Z,9.15
2018-12-23T10:26:34.035Z,9.18
2018-12-23T10:27:40.269Z,9.17
2018-12-23T10:28:46.518Z,9.19
2018-12-23T10:29:52.774Z,9.17
2018-12-23T10:30:59.000Z,9.15
2018-12-23T10:32:05.248Z,9.11
2018-12-23T10:33:11.578Z,9.08
2018-12-23T10:34:17.712Z,9.10
2018-12-23T10:35:23.943Z,9.15
2018-12-23T10:36:30.174Z,9.15
2018-12-23T10:37:36.416Z,9.17
2018-12-23T10:38:42.666Z,9.19
2018-12-23T10:39:48.950Z,9.20
2018-12-23T10:40:55.120Z,9.17
2018-12-23T10:42:01.373Z,9.17
2018-12-23T10:43:07.611Z,9.15
2018-12-23T10:44:13.852Z,9.11
2018-12-23T10:45:19.591Z,9.08
2018-12-23T10:46:26.334Z,9.06
2018-12-23T10:47:32.551Z,9.09
2018-12-23T10:48:38.792Z,9.09
2018-12-23T10:49:45.032Z,9.08
2018-12-23T10:50:51.270Z,9.04
2018-12-23T10:51:58.498Z,9.05
2018-12-23T10:53:03.745Z,9.03
2018-12-23T10:54:09.959Z,9.06
2018-12-23T10:55:16.217Z,9.07
2018-12-23T10:56:21.936Z,9.10
2018-12-23T10:57:28.192Z,9.12
2018-12-23T10:58:34.898Z,9.13
2018-12-23T10:59:41.146Z,9.13
2018-12-23T11:00:47.406Z,9.18
2018-12-23T11:01:53.618Z,9.20
2018-12-23T11:02:59.850Z,9.24
2018-12-23T11:04:07.094Z,9.33
2018-12-23T11:05:12.330Z,9.38
2018-12-23T11:06:18.575Z,9.39
2018-12-23T11:07:24.797Z,9.36
2018-12-23T11:08:31.039Z,9.31
2018-12-23T11:09:37.289Z,9.26
2018-12-23T11:10:43.531Z,9.26
2018-12-23T11:11:49.770Z,9.28
2018-12-23T11:12:56.016Z,9.29
2018-12-23T11:14:01.750Z,9.29
2018-12-23T11:15:08.499Z,9.26
2018-12-23T11:16:14.713Z,9.27
2018-12-23T11:17:20.965Z,9.34
2018-12-23T11:18:27.213Z,9.30
2018-12-23T11:19:33.447Z,9.24
2018-12-23T11:20:39.687Z,9.23
2018-12-23T11:21:45.908Z,9.32
2018-12-23T11:22:52.145Z,9.41
2018-12-23T11:23:58.391Z,9.45
2018-12-23T11:25:04.629Z,9.47
2018-12-23T11:26:10.393Z,9.47
2018-12-23T11:27:17.119Z,9.40
2018-12-23T11:28:23.370Z,9.42
2018-12-23T11:29:29.616Z,9.48
2018-12-23T11:30:35.838Z,9.56
2018-12-23T11:31:42.089Z,9.54
2018-12-23T11:32:48.327Z,9.56
2018-12-23T11:33:54.574Z,9.52
2018-12-23T11:35:00.810Z,9.51
2018-12-23T11:36:07.053Z,9.52
2018-12-23T11:37:13.300Z,9.57
2018-12-23T11:38:19.577Z,9.59
2018-12-23T11:39:25.292Z,9.60
2018-12-23T11:40:32.043Z,9.56
2018-12-23T11:41:38.269Z,9.50
2018-12-23T11:42:44.510Z,9.49
2018-12-23T11:43:50.766Z,9.48
2018-12-23T11:44:57.009Z,9.43
2018-12-23T11:46:03.247Z,9.35
2018-12-23T11:47:09.575Z,9.30
2018-12-23T11:48:15.737Z,9.25
2018-12-23T11:49:21.987Z,9.19
2018-12-23T11:50:28.295Z,9.16
2018-12-23T11:51:34.457Z,9.14
2018-12-23T11:52:40.703Z,9.09
2018-12-23T11:53:46.924Z,9.06
2018-12-23T11:54:53.172Z,9.04
2018-12-23T11:55:59.397Z,9.02
2018-12-23T11:57:05.633Z,9.00
2018-12-23T11:58:11.857Z,8.98
2018-12-23T11:59:18.088Z,8.94
2018-12-23T12:00:23.827Z,8.93
2018-12-23T12:01:30.556Z,8.92
2018-12-23T12:02:36.776Z,8.91
2018-12-23T12:03:43.009Z,8.92
2018-12-23T12:04:49.241Z,8.95
2018-12-23T12:05:55.583Z,8.98
2018-12-23T12:07:01.735Z,8.98
2018-12-23T12:08:07.932Z,8.99
2018-12-23T12:09:14.160Z,8.99
2018-12-23T12:10:20.384Z,9.01
2018-12-23T12:11:26.612Z,9.02
2018-12-23T12:12:32.830Z,9.01
2018-12-23T12:13:39.081Z,9.01
2018-12-23T12:14:46.296Z,8.99
2018-12-23T12:15:51.527Z,8.99
2018-12-23T12:16:57.751Z,8.98
2018-12-23T12:18:03.988Z,8.99
2018-12-23T12:19:10.209Z,8.98
2018-12-23T12:20:16.428Z,8.98
2018-12-23T12:21:22.648Z,8.98
2018-12-23T12:22:28.887Z,9.02
2018-12-23T12:23:35.110Z,9.06
2018-12-23T12:24:41.330Z,9.11
2018-12-23T12:25:47.562Z,9.12
2018-12-23T12:26:53.794Z,9.14
2018-12-23T12:28:01.024Z,9.17
2018-12-23T12:29:06.272Z,9.19
2018-12-23T12:30:12.546Z,9.25
2018-12-23T12:31:18.722Z,9.29
2018-12-23T12:32:24.939Z,9.35
2018-12-23T12:33:31.164Z,9.38
2018-12-23T12:34:37.397Z,9.40
2018-12-23T12:35:43.638Z,9.44
2018-12-23T12:36:49.381Z,9.50
2018-12-23T12:37:56.122Z,9.55
2018-12-23T12:39:02.377Z,9.60
2018-12-23T12:40:08.586Z,9.63
2018-12-23T12:41:14.820Z,9.66
2018-12-23T12:42:21.057Z,9.66
2018-12-23T12:43:27.326Z,9.65
2018-12-23T12:44:33.588Z,9.66
2018-12-23T12:45:39.781Z,9.65
2018-12-23T12:46:46.049Z,9.64
2018-12-23T12:47:52.249Z,9.64
2018-12-23T12:48:58.859Z,9.62
2018-12-23T12:50:04.768Z,9.63
2018-12-23T12:51:10.982Z,9.63
2018-12-23T12:52:17.234Z,9.65
2018-12-23T12:53:22.984Z,9.67
2018-12-23T12:54:29.276Z,9.67
2018-12-23T12:55:35.954Z,9.67
2018-12-23T12:56:42.212Z,9.65
2018-12-23T12:57:48.444Z,9.63
2018-12-23T12:58:54.179Z,9.61
2018-12-23T13:00:00.922Z,9.56
2018-12-23T13:01:07.162Z,9.52
2018-12-23T13:02:13.415Z,9.47
2018-12-23T13:03:19.154Z,9.46
2018-12-23T13:04:26.882Z,9.45
2018-12-23T13:05:32.128Z,9.45
2018-12-23T13:06:38.371Z,9.44
2018-12-23T13:07:44.609Z,9.44
2018-12-23T13:08:50.351Z,9.44
2018-12-23T13:09:57.091Z,9.45
2018-12-23T13:11:03.320Z,9.44
2018-12-23T13:12:09.576Z,9.42
2018-12-23T13:13:15.812Z,9.37
2018-12-23T13:14:22.056Z,9.32
2018-12-23T13:15:28.297Z,9.26
2018-12-23T13:16:34.565Z,9.19
2018-12-23T13:17:40.767Z,9.15
2018-12-23T13:18:47.012Z,9.09
2018-12-23T13:19:52.757Z,9.01
2018-12-23T13:20:59.582Z,8.92
2018-12-23T13:22:05.829Z,8.85
2018-12-23T13:23:11.949Z,8.75
2018-12-23T13:24:18.182Z,8.64
2018-12-23T13:25:24.416Z,8.55
2018-12-23T13:26:30.646Z,8.49
2018-12-23T13:27:36.880Z,8.44
2018-12-23T13:28:43.108Z,8.39
2018-12-23T13:29:49.344Z,8.35
2018-12-23T13:30:55.555Z,8.31
2018-12-23T13:32:01.289Z,8.25
2018-12-23T13:33:08.090Z,8.20
2018-12-23T13:34:14.229Z,8.17
2018-12-23T13:35:19.938Z,8.14
2018-12-23T13:36:26.675Z,8.08
2018-12-23T13:37:32.871Z,8.06
2018-12-23T13:38:39.093Z,8.07
2018-12-23T13:39:44.809Z,8.06
2018-12-23T13:40:51.041Z,8.04
2018-12-23T13:41:57.727Z,8.03
2018-12-23T13:43:04.445Z,8.01
2018-12-23T13:44:10.150Z,7.98
2018-12-23T13:45:15.869Z,7.97
2018-12-23T13:46:22.572Z,7.95
2018-12-23T13:47:28.785Z,7.95
2018-12-23T13:48:34.996Z,7.94
2018-12-23T13:49:41.211Z,7.93
2018-12-23T13:50:47.899Z,7.93
2018-12-23T13:51:53.602Z,7.93
2018-12-23T13:52:59.315Z,7.91
2018-12-23T13:54:05.522Z,7.91
2018-12-23T13:55:12.214Z,7.89
2018-12-23T13:56:18.450Z,7.89
2018-12-23T13:57:24.127Z,7.88
2018-12-23T13:58:30.826Z,7.89
2018-12-23T13:59:37.026Z,7.88
2018-12-23T14:00:43.218Z,7.87
2018-12-23T14:01:49.732Z,7.86
2018-12-23T14:02:55.125Z,7.87
2018-12-23T14:04:01.319Z,7.85
2018-12-23T14:05:07.529Z,7.85
2018-12-23T14:06:14.433Z,7.83
2018-12-23T14:07:19.933Z,7.83
2018-12-23T14:08:26.143Z,7.84
2018-12-23T14:09:32.819Z,7.85
2018-12-23T14:10:39.005Z,7.85
2018-12-23T14:11:45.792Z,7.87
2018-12-23T14:12:51.395Z,7.88
2018-12-23T14:13:57.095Z,7.87
2018-12-23T14:15:03.799Z,7.88
2018-12-23T14:16:10.445Z,7.87
2018-12-23T14:17:16.181Z,7.86
2018-12-23T14:18:22.368Z,7.85
2018-12-23T14:19:28.070Z,7.85
2018-12-23T14:20:34.291Z,7.84
2018-12-23T14:21:40.966Z,7.84
2018-12-23T14:22:47.142Z,7.84
2018-12-23T14:23:53.331Z,7.83
2018-12-23T14:24:59.584Z,7.83
2018-12-23T14:26:05.721Z,7.82
2018-12-23T14:27:11.897Z,7.82
2018-12-23T14:28:17.609Z,7.81
2018-12-23T14:29:24.289Z,7.81
2018-12-23T14:30:30.480Z,7.80
2018-12-23T14:31:36.164Z,7.81
2018-12-23T14:32:42.860Z,7.80
2018-12-23T14:33:49.055Z,7.81
2018-12-23T14:34:55.243Z,7.81
2018-12-23T14:36:01.441Z,7.80
2018-12-23T14:37:07.129Z,7.79
2018-12-23T14:38:13.816Z,7.79
2018-12-23T14:39:27.081Z,7.79
2018-12-23T14:40:25.698Z,7.81
2018-12-23T14:41:32.384Z,7.81
2018-12-23T14:42:38.581Z,7.81
2018-12-23T14:43:44.752Z,7.81
2018-12-23T14:44:50.490Z,7.80
2018-12-23T14:45:56.641Z,7.78